Time;durP1;ratioP1;P1;durP2;ratioP2;P2;SDS_P1;SDS_P2;PMS_P1;PMS_P2;Temp;Humidity;BMP_temperature;BMP_pressure;BME280_temperature;BME280_humidity;BME280_pressure;Samples;Min_cycle;Max_cycle;Signal;HPM_P1;HPM_P2
2023/12/11 00:01:05;;;;;;;13.57;11.80;;;10.40;99.90;;;;;;5029641;28;20192;-66
2023/12/11 00:03:32;;;;;;;12.63;11.33;;;10.20;99.90;;;;;;5018848;28;20209;-65
2023/12/11 00:05:59;;;;;;;12.40;11.30;;;10.30;99.90;;;;;;5030767;28;20532;-64
2023/12/11 00:08:26;;;;;;;12.77;11.43;;;10.50;99.90;;;;;;5010414;28;20208;-65
2023/12/11 00:10:53;;;;;;;17.33;11.93;;;10.50;99.90;;;;;;5028090;28;20215;-66
2023/12/11 00:13:20;;;;;;;13.20;11.87;;;10.40;99.90;;;;;;5003217;28;20708;-66
2023/12/11 00:15:47;;;;;;;14.50;13.20;;;10.40;99.90;;;;;;5019931;28;20359;-67
2023/12/11 00:18:14;;;;;;;13.53;12.30;;;10.60;99.90;;;;;;5031068;28;20215;-67
2023/12/11 00:20:41;;;;;;;13.57;11.87;;;10.60;99.90;;;;;;5031332;28;20207;-66
2023/12/11 00:23:08;;;;;;;14.97;12.23;;;10.70;99.90;;;;;;5023980;28;20234;-67
2023/12/11 00:25:37;;;;;;;13.17;12.17;;;10.60;99.90;;;;;;5027030;28;20261;-67
2023/12/11 00:28:04;;;;;;;18.50;12.27;;;10.60;99.90;;;;;;5029771;28;20348;-66
2023/12/11 00:30:31;;;;;;;12.73;11.40;;;10.60;99.90;;;;;;5047195;28;20561;-67
2023/12/11 00:32:58;;;;;;;14.87;12.60;;;10.70;99.90;;;;;;5023267;28;20314;-67
2023/12/11 00:35:25;;;;;;;14.70;13.10;;;10.80;99.90;;;;;;5027123;28;20288;-67
2023/12/11 00:37:52;;;;;;;19.57;12.87;;;10.70;99.90;;;;;;5022258;28;20200;-67
2023/12/11 00:40:19;;;;;;;19.10;12.37;;;10.60;99.90;;;;;;5024936;28;20200;-68
2023/12/11 00:42:46;;;;;;;19.77;12.33;;;10.50;99.90;;;;;;5022871;28;20204;-67
2023/12/11 00:45:13;;;;;;;13.47;12.23;;;10.50;99.90;;;;;;5027160;28;20196;-68
2023/12/11 00:47:40;;;;;;;14.23;12.93;;;10.50;99.90;;;;;;5026650;28;20216;-68
2023/12/11 00:50:08;;;;;;;18.10;12.43;;;10.60;99.90;;;;;;5008041;28;20184;-68
2023/12/11 00:52:35;;;;;;;13.47;12.10;;;10.50;99.90;;;;;;5022160;28;20279;-68
2023/12/11 00:55:02;;;;;;;13.73;12.30;;;10.60;99.90;;;;;;5028621;28;20216;-69
2023/12/11 00:57:30;;;;;;;13.63;12.23;;;10.50;99.90;;;;;;5038152;28;20579;-70
2023/12/11 00:59:57;;;;;;;12.77;11.70;;;10.60;99.90;;;;;;5025918;28;20251;-70
2023/12/11 01:02:24;;;;;;;15.63;12.10;;;10.60;99.90;;;;;;5025821;28;20199;-70
2023/12/11 01:04:51;;;;;;;14.03;11.73;;;10.60;99.90;;;;;;5031997;28;20205;-70
2023/12/11 01:07:18;;;;;;;17.33;12.60;;;10.60;99.90;;;;;;5027688;28;20291;-70
2023/12/11 01:09:45;;;;;;;17.87;11.70;;;10.60;99.90;;;;;;5026647;28;20204;-70
2023/12/11 01:12:12;;;;;;;20.83;11.40;;;10.50;99.90;;;;;;5031654;28;20245;-70
2023/12/11 01:14:39;;;;;;;12.70;11.37;;;10.40;99.90;;;;;;5010650;28;20290;-71
2023/12/11 01:17:06;;;;;;;17.27;11.90;;;10.40;99.90;;;;;;5032966;28;20588;-71
2023/12/11 01:19:53;;;;;;;16.20;12.03;;;10.40;99.90;;;;;;5012273;28;20201;-71
2023/12/11 01:22:20;;;;;;;18.97;11.93;;;10.20;99.90;;;;;;5024562;28;20192;-70
2023/12/11 01:24:47;;;;;;;19.97;13.20;;;10.20;99.90;;;;;;5022758;28;20497;-70
2023/12/11 01:27:15;;;;;;;22.17;12.47;;;10.20;99.90;;;;;;5026241;28;20240;-69
2023/12/11 01:29:42;;;;;;;15.13;13.00;;;10.30;99.90;;;;;;5006670;28;20702;-63
2023/12/11 01:32:09;;;;;;;14.67;11.37;;;10.10;99.90;;;;;;5035721;28;20203;-64
2023/12/11 01:34:36;;;;;;;16.33;12.17;;;10.00;99.90;;;;;;5023098;28;20197;-67
2023/12/11 01:37:03;;;;;;;13.83;11.90;;;10.10;99.90;;;;;;5024764;28;20698;-65
2023/12/11 01:39:30;;;;;;;14.07;12.17;;;10.10;99.90;;;;;;5024394;28;20227;-65
2023/12/11 01:41:58;;;;;;;23.63;12.10;;;10.10;99.90;;;;;;5014869;28;20745;-65
2023/12/11 01:44:25;;;;;;;15.33;13.73;;;10.10;99.90;;;;;;5024671;28;20192;-64
2023/12/11 01:46:53;;;;;;;18.50;12.50;;;10.00;99.90;;;;;;5029361;28;20201;-65
2023/12/11 01:49:20;;;;;;;18.27;12.73;;;9.90;99.90;;;;;;5026976;28;20683;-66
2023/12/11 01:51:47;;;;;;;14.27;12.97;;;9.90;99.90;;;;;;5023015;28;20226;-65
2023/12/11 01:54:16;;;;;;;17.37;12.43;;;9.90;99.90;;;;;;5037052;28;20200;-65
2023/12/11 01:56:43;;;;;;;17.57;12.67;;;9.90;99.90;;;;;;5026712;28;20228;-64
2023/12/11 01:59:11;;;;;;;20.23;12.17;;;10.00;99.90;;;;;;5027903;28;20192;-65
2023/12/11 02:01:38;;;;;;;19.10;13.30;;;10.10;99.90;;;;;;5017468;28;20190;-67
2023/12/11 02:04:07;;;;;;;21.03;12.30;;;10.00;99.90;;;;;;5025704;28;20673;-67
2023/12/11 02:06:34;;;;;;;21.67;12.03;;;9.90;99.90;;;;;;5036681;28;20199;-65
2023/12/11 02:09:04;;;;;;;14.03;11.63;;;9.90;99.90;;;;;;5022163;28;20231;-64
2023/12/11 02:11:31;;;;;;;16.33;12.17;;;9.80;99.90;;;;;;5025791;28;20236;-65
2023/12/11 02:13:58;;;;;;;18.57;12.10;;;9.80;99.90;;;;;;5039457;28;20184;-65
2023/12/11 02:16:25;;;;;;;16.07;12.57;;;9.90;99.90;;;;;;5025251;28;20275;-65
2023/12/11 02:18:52;;;;;;;16.23;13.07;;;9.90;99.90;;;;;;5029805;28;20211;-65
2023/12/11 02:21:20;;;;;;;14.57;12.43;;;9.90;99.90;;;;;;5032270;28;20208;-65
2023/12/11 02:24:00;;;;;;;14.90;11.90;;;9.90;99.90;;;;;;5030673;28;20195;-63
2023/12/11 02:26:27;;;;;;;18.77;11.70;;;9.90;99.90;;;;;;5022581;28;20197;-64
2023/12/11 02:28:54;;;;;;;17.40;12.17;;;9.90;99.90;;;;;;5028906;28;20221;-63
2023/12/11 02:31:22;;;;;;;13.53;12.17;;;9.80;99.90;;;;;;5031828;28;20187;-62
2023/12/11 02:33:49;;;;;;;22.23;12.10;;;9.90;99.90;;;;;;5036904;28;20202;-64
2023/12/11 02:36:16;;;;;;;14.13;11.63;;;9.80;99.90;;;;;;5036275;28;20199;-64
2023/12/11 02:38:43;;;;;;;25.30;12.23;;;9.80;99.90;;;;;;5029731;28;20196;-70
2023/12/11 02:41:10;;;;;;;23.07;13.10;;;10.00;99.90;;;;;;5032116;28;20200;-69
2023/12/11 02:43:37;;;;;;;17.73;11.70;;;10.10;99.90;;;;;;5028056;28;20219;-69
2023/12/11 02:46:04;;;;;;;16.33;12.77;;;10.10;99.90;;;;;;5037755;28;20505;-70
2023/12/11 02:48:31;;;;;;;19.67;12.00;;;10.00;99.90;;;;;;5040411;28;20654;-69
2023/12/11 02:50:59;;;;;;;13.33;11.97;;;10.00;99.90;;;;;;5009453;28;20210;-73
2023/12/11 02:53:26;;;;;;;16.83;12.33;;;9.90;99.90;;;;;;5029435;28;20230;-71
2023/12/11 02:55:53;;;;;;;12.23;11.03;;;9.80;99.90;;;;;;5029240;28;20188;-70
2023/12/11 02:58:20;;;;;;;17.93;12.10;;;9.90;99.90;;;;;;5021636;28;20223;-71
2023/12/11 03:04:47;;;;;;;17.63;12.10;;;9.90;99.90;;;;;;5037156;28;20238;-71
2023/12/11 03:07:15;;;;;;;14.33;12.00;;;9.90;99.90;;;;;;5032093;28;20203;-73
2023/12/11 03:09:42;;;;;;;13.17;12.00;;;9.90;99.90;;;;;;5039387;28;20230;-73
2023/12/11 03:12:09;;;;;;;21.37;12.33;;;10.00;99.90;;;;;;5025115;28;20591;-72
2023/12/11 03:14:36;;;;;;;20.10;12.90;;;10.00;99.90;;;;;;5016591;28;20181;-72
2023/12/11 03:17:03;;;;;;;15.63;11.87;;;9.90;99.90;;;;;;5029871;28;20825;-72
2023/12/11 03:19:33;;;;;;;21.63;12.77;;;9.80;99.90;;;;;;5022381;28;20312;-73
2023/12/11 03:22:00;;;;;;;15.00;12.40;;;9.90;99.90;;;;;;5028891;28;20204;-73
2023/12/11 03:24:27;;;;;;;31.53;12.90;;;9.90;99.90;;;;;;5026890;28;20238;-72
2023/12/11 03:26:54;;;;;;;17.63;12.30;;;9.90;99.90;;;;;;5025426;28;20671;-68
2023/12/11 03:29:21;;;;;;;18.60;12.57;;;9.80;99.90;;;;;;5037570;28;20215;-68
2023/12/11 03:31:48;;;;;;;18.40;12.27;;;9.80;99.90;;;;;;5038967;28;20264;-66
2023/12/11 03:34:15;;;;;;;24.07;13.67;;;9.80;99.90;;;;;;5034297;28;20208;-67
2023/12/11 03:36:42;;;;;;;20.00;12.50;;;9.70;99.90;;;;;;5035995;28;20762;-67
2023/12/11 03:39:09;;;;;;;18.50;12.33;;;9.80;99.90;;;;;;5031616;28;20218;-67
2023/12/11 03:41:38;;;;;;;21.57;13.13;;;9.80;99.90;;;;;;5030581;28;20246;-69
2023/12/11 03:44:05;;;;;;;23.67;12.20;;;9.90;99.90;;;;;;5026905;28;20272;-68
2023/12/11 03:46:32;;;;;;;21.90;12.03;;;9.90;99.90;;;;;;5011913;28;20606;-66
2023/12/11 03:48:59;;;;;;;24.10;12.57;;;9.90;99.90;;;;;;5027338;28;20681;-73
2023/12/11 03:51:26;;;;;;;23.17;12.43;;;9.90;99.90;;;;;;5020547;28;20192;-73
2023/12/11 03:53:53;;;;;;;24.80;12.97;;;9.80;99.90;;;;;;5027590;28;20243;-73
2023/12/11 03:56:20;;;;;;;13.43;12.20;;;9.60;99.90;;;;;;5021217;28;20188;-75
2023/12/11 03:58:47;;;;;;;15.23;12.00;;;9.90;99.90;;;;;;5032407;28;20713;-72
2023/12/11 04:01:14;;;;;;;15.13;12.70;;;10.00;99.90;;;;;;5036666;28;20640;-73
2023/12/11 04:03:41;;;;;;;18.90;12.33;;;10.10;99.90;;;;;;5027297;28;20286;-72
2023/12/11 04:06:08;;;;;;;21.37;12.43;;;10.20;99.90;;;;;;5033134;28;20539;-73
2023/12/11 04:08:40;;;;;;;23.93;12.90;;;10.10;99.90;;;;;;5023670;28;20311;-72
2023/12/11 04:11:09;;;;;;;15.63;12.50;;;10.10;99.90;;;;;;5022403;28;20782;-73
2023/12/11 04:13:36;;;;;;;17.13;12.87;;;10.10;99.90;;;;;;5030290;28;20356;-73
2023/12/11 04:16:03;;;;;;;19.93;13.40;;;10.20;99.90;;;;;;5030504;28;20203;-73
2023/12/11 04:18:32;;;;;;;19.33;14.13;;;10.20;99.90;;;;;;5040032;28;20290;-72
2023/12/11 04:20:59;;;;;;;23.97;14.20;;;10.00;99.90;;;;;;5034979;28;20271;-73
2023/12/11 04:23:26;;;;;;;21.93;13.53;;;10.00;99.90;;;;;;5039270;28;20195;-73
2023/12/11 04:25:54;;;;;;;22.17;12.93;;;9.90;99.90;;;;;;5020850;28;20200;-72
2023/12/11 04:28:21;;;;;;;16.40;12.80;;;10.10;99.90;;;;;;5035770;28;20216;-71
2023/12/11 04:30:48;;;;;;;19.80;13.37;;;10.20;99.90;;;;;;5036889;28;20198;-67
2023/12/11 04:33:16;;;;;;;14.23;12.83;;;10.30;99.90;;;;;;5024061;28;20196;-68
2023/12/11 04:35:44;;;;;;;28.30;13.77;;;10.30;99.90;;;;;;5023796;28;20200;-66
2023/12/11 04:38:11;;;;;;;13.63;12.40;;;10.30;99.90;;;;;;5023467;28;20195;-67
2023/12/11 04:40:38;;;;;;;14.83;12.60;;;10.10;99.90;;;;;;5028852;28;20807;-67
2023/12/11 04:43:05;;;;;;;17.80;13.10;;;10.00;99.90;;;;;;5026743;28;20308;-66
2023/12/11 04:45:33;;;;;;;20.17;13.97;;;10.00;99.90;;;;;;5017440;28;20196;-67
2023/12/11 04:48:00;;;;;;;16.47;12.63;;;10.00;99.90;;;;;;5034100;28;20809;-67
2023/12/11 04:50:27;;;;;;;12.97;11.93;;;9.90;99.90;;;;;;5020123;28;20563;-68
2023/12/11 04:52:54;;;;;;;16.37;12.80;;;10.00;99.90;;;;;;5026321;28;20195;-67
2023/12/11 04:55:21;;;;;;;16.73;12.83;;;9.80;99.90;;;;;;5027869;28;20189;-67
2023/12/11 04:57:48;;;;;;;14.00;12.50;;;9.70;99.90;;;;;;5032239;28;20231;-69
2023/12/11 05:00:17;;;;;;;17.67;12.63;;;9.80;99.90;;;;;;5028699;28;20216;-71
2023/12/11 05:02:43;;;;;;;17.17;12.47;;;9.90;99.90;;;;;;5013758;28;20196;-69
2023/12/11 05:05:11;;;;;;;14.73;13.23;;;10.00;99.90;;;;;;5019740;28;20738;-71
2023/12/11 05:07:38;;;;;;;15.83;12.50;;;10.10;99.90;;;;;;5024838;28;20597;-71
2023/12/11 05:10:05;;;;;;;17.30;12.60;;;10.00;99.90;;;;;;5039954;28;20204;-72
2023/12/11 05:12:32;;;;;;;16.70;13.03;;;10.00;99.90;;;;;;5035719;28;20251;-71
2023/12/11 05:15:01;;;;;;;13.73;12.43;;;9.90;99.90;;;;;;5028221;28;20207;-72
2023/12/11 05:17:29;;;;;;;15.27;13.30;;;10.00;99.90;;;;;;5026914;28;20470;-72
2023/12/11 05:19:56;;;;;;;17.40;12.83;;;10.00;99.90;;;;;;5030245;28;20291;-72
2023/12/11 05:22:24;;;;;;;14.33;12.87;;;10.10;99.90;;;;;;5027443;28;20196;-71
2023/12/11 05:24:51;;;;;;;22.57;12.80;;;10.20;99.90;;;;;;5002513;28;20329;-71
2023/12/11 05:27:18;;;;;;;14.80;13.20;;;10.30;99.90;;;;;;5032905;28;20192;-71
2023/12/11 05:29:45;;;;;;;16.73;12.53;;;10.30;99.90;;;;;;5026494;28;20310;-71
2023/12/11 05:32:13;;;;;;;15.37;12.93;;;10.30;99.90;;;;;;5025677;28;20211;-70
2023/12/11 05:34:40;;;;;;;13.80;12.63;;;10.20;99.90;;;;;;5020914;28;20188;-71
2023/12/11 05:37:07;;;;;;;26.20;12.63;;;10.00;99.90;;;;;;5011327;28;20192;-71
2023/12/11 05:39:34;;;;;;;14.27;12.83;;;9.80;99.90;;;;;;5027273;28;20254;-71
2023/12/11 05:42:06;;;;;;;15.77;13.00;;;9.70;99.90;;;;;;5027427;28;20298;-71
2023/12/11 05:44:33;;;;;;;17.33;12.70;;;9.70;99.90;;;;;;5010395;28;20222;-71
2023/12/11 05:47:00;;;;;;;15.63;13.10;;;9.60;99.90;;;;;;5028874;28;20358;-71
2023/12/11 05:49:27;;;;;;;14.17;12.80;;;9.60;99.90;;;;;;5020283;28;20204;-71
2023/12/11 05:51:56;;;;;;;14.53;12.97;;;9.50;99.90;;;;;;5026978;28;20235;-71
2023/12/11 05:54:23;;;;;;;14.77;12.27;;;9.50;99.90;;;;;;5030652;28;20435;-73
2023/12/11 05:56:50;;;;;;;13.83;12.43;;;9.40;99.90;;;;;;5029990;28;20219;-72
2023/12/11 05:59:17;;;;;;;13.67;12.47;;;9.40;99.90;;;;;;5031406;28;20739;-71
2023/12/11 06:01:44;;;;;;;13.80;12.47;;;9.50;99.90;;;;;;5031648;28;20250;-68
2023/12/11 06:04:11;;;;;;;14.57;12.93;;;9.60;99.90;;;;;;5031392;28;21044;-68
2023/12/11 06:06:38;;;;;;;13.97;12.57;;;9.60;99.90;;;;;;5021207;28;20285;-68
2023/12/11 06:09:06;;;;;;;15.07;12.60;;;9.60;99.90;;;;;;5030623;28;20239;-68
2023/12/11 06:11:33;;;;;;;16.33;12.60;;;9.60;99.90;;;;;;5027016;28;20223;-68
2023/12/11 06:13:59;;;;;;;13.87;12.67;;;9.60;99.90;;;;;;5018436;28;20196;-68
2023/12/11 06:16:27;;;;;;;15.63;12.20;;;9.70;99.90;;;;;;5027984;28;20192;-68
2023/12/11 06:18:53;;;;;;;15.37;12.30;;;9.80;99.90;;;;;;5027397;28;20196;-68
2023/12/11 06:21:21;;;;;;;14.17;12.43;;;9.80;99.90;;;;;;5030681;28;20826;-68
2023/12/11 06:23:48;;;;;;;13.70;12.50;;;9.80;99.90;;;;;;5023378;28;20188;-68
2023/12/11 06:26:30;;;;;;;14.13;12.87;;;9.80;99.90;;;;;;5012176;28;20549;-67
2023/12/11 06:29:00;;;;;;;14.07;12.73;;;9.80;99.90;;;;;;5012139;28;20230;-66
2023/12/11 06:31:29;;;;;;;14.23;12.23;;;9.90;99.90;;;;;;5027250;28;20219;-66
2023/12/11 06:33:57;;;;;;;13.33;12.10;;;9.80;99.90;;;;;;5026689;28;20226;-66
2023/12/11 06:36:26;;;;;;;13.17;12.00;;;10.00;99.90;;;;;;5031668;28;20302;-68
2023/12/11 06:38:53;;;;;;;16.17;13.00;;;10.00;99.90;;;;;;5034028;28;20634;-68
2023/12/11 06:41:20;;;;;;;13.40;12.17;;;9.90;99.90;;;;;;5031472;28;20218;-68
2023/12/11 06:43:49;;;;;;;20.87;12.90;;;9.90;99.90;;;;;;5031867;28;20606;-68
2023/12/11 06:46:16;;;;;;;13.47;12.10;;;10.00;99.90;;;;;;5011267;28;20643;-69
2023/12/11 06:48:43;;;;;;;16.00;13.03;;;9.90;99.90;;;;;;5029378;28;20212;-68
2023/12/11 06:51:11;;;;;;;18.50;12.27;;;9.90;99.90;;;;;;5028199;28;20192;-69
2023/12/11 06:53:38;;;;;;;16.93;12.93;;;10.00;99.90;;;;;;5029432;28;20307;-68
2023/12/11 06:56:05;;;;;;;13.63;12.33;;;9.90;99.90;;;;;;5035504;28;20188;-69
2023/12/11 06:58:32;;;;;;;14.97;12.90;;;9.90;99.90;;;;;;5028808;28;20212;-69
2023/12/11 07:01:00;;;;;;;14.87;13.30;;;9.90;99.90;;;;;;5027754;28;20192;-69
2023/12/11 07:03:27;;;;;;;14.27;12.83;;;9.90;99.90;;;;;;5026578;28;20201;-69
2023/12/11 07:05:54;;;;;;;13.67;12.43;;;9.90;99.90;;;;;;5032167;28;20313;-69
2023/12/11 07:08:22;;;;;;;15.37;12.57;;;9.90;99.90;;;;;;5027064;28;20200;-69
2023/12/11 07:10:49;;;;;;;18.10;12.53;;;9.80;99.90;;;;;;5029817;28;20628;-69
2023/12/11 07:13:16;;;;;;;14.13;12.43;;;9.90;99.90;;;;;;5027286;28;20232;-69
2023/12/11 07:15:43;;;;;;;17.07;12.17;;;9.80;99.90;;;;;;5014511;28;20207;-69
2023/12/11 07:18:13;;;;;;;14.47;12.57;;;9.70;99.90;;;;;;5024554;28;20215;-69
2023/12/11 07:20:44;;;;;;;15.17;12.97;;;9.80;99.90;;;;;;5029308;28;20188;-68
2023/12/11 07:23:11;;;;;;;19.40;12.67;;;9.90;99.90;;;;;;5026969;28;20640;-69
2023/12/11 07:25:38;;;;;;;16.33;13.33;;;10.00;99.90;;;;;;5025707;28;20188;-68
2023/12/11 07:28:05;;;;;;;16.17;12.80;;;10.00;99.90;;;;;;5028531;28;20201;-69
2023/12/11 07:30:32;;;;;;;14.17;12.03;;;10.00;99.90;;;;;;5026874;28;20289;-69
2023/12/11 07:32:59;;;;;;;23.90;12.73;;;10.00;99.90;;;;;;5028975;28;20287;-69
2023/12/11 07:35:26;;;;;;;15.37;13.13;;;10.00;99.90;;;;;;5028815;28;20187;-68
2023/12/11 07:37:53;;;;;;;24.87;13.67;;;10.00;99.90;;;;;;5015111;28;20665;-70
2023/12/11 07:40:21;;;;;;;12.63;11.73;;;10.00;99.90;;;;;;5028068;28;20206;-69
2023/12/11 07:42:48;;;;;;;14.40;12.90;;;10.00;99.90;;;;;;5028441;28;20289;-69
2023/12/11 07:45:15;;;;;;;14.70;12.10;;;10.00;99.90;;;;;;5028030;28;20184;-69
2023/12/11 07:47:42;;;;;;;13.77;12.37;;;10.00;99.90;;;;;;5008381;28;20600;-69
2023/12/11 07:50:09;;;;;;;17.53;13.20;;;10.10;99.90;;;;;;5028739;28;20227;-69
2023/12/11 07:52:36;;;;;;;16.13;12.93;;;10.10;99.90;;;;;;5027404;28;20263;-69
2023/12/11 07:55:04;;;;;;;23.03;13.17;;;10.10;99.90;;;;;;5028240;28;20207;-68
2023/12/11 07:57:31;;;;;;;16.70;12.70;;;10.10;99.90;;;;;;5028567;28;20540;-69
2023/12/11 07:59:58;;;;;;;23.23;12.53;;;10.00;99.90;;;;;;5026829;28;20291;-69
2023/12/11 08:02:26;;;;;;;14.93;12.30;;;10.00;99.90;;;;;;5026518;28;20207;-69
2023/12/11 08:04:53;;;;;;;13.93;12.33;;;10.00;99.90;;;;;;5025619;28;20208;-69
2023/12/11 08:07:20;;;;;;;14.10;12.53;;;9.90;99.90;;;;;;5018696;28;20273;-69
2023/12/11 08:09:48;;;;;;;16.20;13.17;;;9.80;99.90;;;;;;5026001;28;20605;-69
2023/12/11 08:12:15;;;;;;;12.60;11.37;;;9.70;99.90;;;;;;5026004;28;20228;-69
2023/12/11 08:14:42;;;;;;;13.03;11.93;;;9.70;99.90;;;;;;5026225;28;20264;-69
2023/12/11 08:17:10;;;;;;;16.37;11.70;;;9.70;99.90;;;;;;5025900;28;20238;-69
2023/12/11 08:19:37;;;;;;;14.70;11.20;;;9.70;99.90;;;;;;5018475;28;20192;-68
2023/12/11 08:22:05;;;;;;;16.53;12.63;;;9.80;99.90;;;;;;5007017;28;20223;-69
2023/12/11 08:24:32;;;;;;;13.33;11.93;;;9.80;99.90;;;;;;5019118;28;20212;-69
2023/12/11 08:26:59;;;;;;;12.97;11.70;;;9.70;99.90;;;;;;5027689;28;20218;-69
2023/12/11 08:29:26;;;;;;;15.33;12.00;;;9.80;99.90;;;;;;5028620;28;20220;-71
2023/12/11 08:31:53;;;;;;;17.67;12.90;;;9.80;99.90;;;;;;5027725;28;20255;-71
2023/12/11 08:34:20;;;;;;;16.50;11.53;;;9.80;99.90;;;;;;5036949;28;20188;-69
2023/12/11 08:36:47;;;;;;;19.70;11.53;;;9.80;99.90;;;;;;5023363;28;20238;-68
2023/12/11 08:39:14;;;;;;;15.27;12.37;;;9.90;99.90;;;;;;5012615;28;20220;-69
2023/12/11 08:41:41;;;;;;;13.67;11.70;;;9.90;99.90;;;;;;5022938;28;20423;-69
2023/12/11 08:44:08;;;;;;;15.47;12.70;;;9.90;99.90;;;;;;5026717;28;20193;-69
2023/12/11 08:46:36;;;;;;;13.57;12.23;;;10.00;99.90;;;;;;5029559;28;20196;-69
2023/12/11 08:49:03;;;;;;;12.97;11.70;;;9.90;99.90;;;;;;5026443;28;20567;-69
2023/12/11 08:51:32;;;;;;;20.60;12.83;;;10.00;99.90;;;;;;5036672;28;20590;-71
2023/12/11 08:53:59;;;;;;;15.07;12.40;;;10.00;99.90;;;;;;5025978;28;20204;-66
2023/12/11 08:56:26;;;;;;;16.87;12.10;;;10.00;99.90;;;;;;5026490;28;20211;-66
2023/12/11 08:58:55;;;;;;;13.20;11.80;;;10.00;99.90;;;;;;5028625;28;20664;-67
2023/12/11 09:01:22;;;;;;;15.13;12.47;;;10.10;99.90;;;;;;5009544;28;20208;-66
2023/12/11 09:03:50;;;;;;;14.07;12.23;;;10.10;99.90;;;;;;5027969;28;20192;-66
2023/12/11 09:06:17;;;;;;;13.83;11.97;;;10.10;99.90;;;;;;5034266;28;20241;-66
2023/12/11 09:08:44;;;;;;;17.93;12.93;;;10.10;99.90;;;;;;5027255;28;20204;-66
2023/12/11 09:11:11;;;;;;;13.13;11.97;;;10.10;99.90;;;;;;5027694;28;20223;-66
2023/12/11 09:13:40;;;;;;;17.03;12.07;;;10.10;99.90;;;;;;5026270;28;20211;-66
2023/12/11 09:16:07;;;;;;;15.80;14.13;;;10.10;99.90;;;;;;5008009;28;20644;-65
2023/12/11 09:18:35;;;;;;;14.50;12.27;;;10.10;99.90;;;;;;5024148;28;20552;-66
2023/12/11 09:21:02;;;;;;;13.50;12.10;;;10.00;99.90;;;;;;5027933;28;20629;-66
2023/12/11 09:23:30;;;;;;;17.23;12.77;;;10.10;99.90;;;;;;5026370;28;20201;-66
2023/12/11 09:25:57;;;;;;;12.00;10.90;;;10.00;99.90;;;;;;5028752;28;20282;-69
2023/12/11 09:28:24;;;;;;;13.37;11.40;;;10.00;99.90;;;;;;5034914;28;20195;-66
2023/12/11 09:30:54;;;;;;;16.97;11.67;;;9.90;99.90;;;;;;5018890;28;20266;-71
2023/12/11 09:33:21;;;;;;;12.80;11.60;;;9.90;99.90;;;;;;5016441;28;20261;-67
2023/12/11 09:35:50;;;;;;;12.87;11.70;;;9.90;99.90;;;;;;5033873;28;20215;-70
2023/12/11 09:38:17;;;;;;;12.57;11.37;;;9.90;99.90;;;;;;5033646;28;20196;-72
2023/12/11 09:40:44;;;;;;;12.97;10.80;;;9.90;99.90;;;;;;5039201;28;20204;-70
2023/12/11 09:43:12;;;;;;;11.73;10.83;;;9.90;99.90;;;;;;5045574;28;20442;-69
2023/12/11 09:45:41;;;;;;;13.00;11.70;;;9.80;99.90;;;;;;5016814;28;20339;-70
2023/12/11 09:48:09;;;;;;;12.47;11.40;;;9.80;99.90;;;;;;5020541;28;20394;-68
2023/12/11 09:50:41;;;;;;;12.87;11.57;;;9.80;99.90;;;;;;5032837;28;20719;-70
2023/12/11 09:53:09;;;;;;;12.20;11.10;;;9.70;99.90;;;;;;5033804;28;20223;-70
2023/12/11 09:55:36;;;;;;;17.50;11.40;;;9.60;99.90;;;;;;5033198;28;20200;-69
2023/12/11 09:58:04;;;;;;;12.43;10.60;;;9.60;99.90;;;;;;5033342;28;20216;-69
2023/12/11 10:00:32;;;;;;;11.47;10.40;;;9.60;99.90;;;;;;5017186;28;20215;-71
2023/12/11 10:03:05;;;;;;;15.80;11.20;;;9.50;99.90;;;;;;5021095;28;20211;-70
2023/12/11 10:05:34;;;;;;;10.67;10.00;;;9.40;99.90;;;;;;5024328;28;20199;-70
2023/12/11 10:08:02;;;;;;;14.23;10.73;;;9.30;99.90;;;;;;5041148;28;20221;-70
2023/12/11 10:10:31;;;;;;;11.67;10.57;;;9.30;99.90;;;;;;5029666;28;20215;-73
2023/12/11 10:13:00;;;;;;;16.83;9.53;;;9.30;99.90;;;;;;5029280;28;20289;-72
2023/12/11 10:15:31;;;;;;;16.03;10.10;;;9.30;99.90;;;;;;5024587;28;20635;-72
2023/12/11 10:18:09;;;;;;;11.23;10.27;;;9.20;1.00;;;;;;5021593;28;20204;-67
2023/12/11 10:20:39;;;;;;;10.70;9.60;;;9.30;1.00;;;;;;5036144;28;20196;-67
2023/12/11 10:23:16;;;;;;;11.00;10.00;;;9.30;1.00;;;;;;5034418;28;20215;-65
2023/12/11 10:25:49;;;;;;;13.83;11.57;;;9.40;99.90;;;;;;5003617;28;20566;-68
2023/12/11 10:28:20;;;;;;;11.50;10.07;;;9.40;99.90;;;;;;5030247;28;20216;-67
2023/12/11 10:31:02;;;;;;;10.97;9.93;;;9.40;99.90;;;;;;5039483;28;20270;-65
2023/12/11 10:33:30;;;;;;;17.30;11.03;;;9.50;99.90;;;;;;5035048;28;20216;-63
2023/12/11 10:36:11;;;;;;;13.63;11.60;;;9.50;99.90;;;;;;5033513;28;20192;-70
2023/12/11 10:38:39;;;;;;;12.23;11.23;;;9.50;99.90;;;;;;5027630;28;20640;-70
2023/12/11 10:41:06;;;;;;;15.20;11.33;;;9.50;99.90;;;;;;5039457;28;20269;-68
2023/12/11 10:43:42;;;;;;;12.70;10.83;;;9.50;99.90;;;;;;5034602;28;20219;-69
2023/12/11 10:46:30;;;;;;;11.93;10.70;;;9.50;99.90;;;;;;5011774;28;20244;-67
2023/12/11 10:48:58;;;;;;;21.43;12.63;;;9.60;99.90;;;;;;5039499;28;20671;-68
2023/12/11 10:51:26;;;;;;;11.57;10.77;;;9.60;99.90;;;;;;5035020;28;20437;-68
2023/12/11 10:53:53;;;;;;;12.13;11.10;;;9.60;99.90;;;;;;5031292;28;20192;-68
2023/12/11 10:56:22;;;;;;;11.93;10.93;;;9.60;99.90;;;;;;5044955;28;20267;-67
2023/12/11 10:58:50;;;;;;;11.83;11.00;;;9.60;99.90;;;;;;5025845;28;20667;-68
2023/12/11 11:01:17;;;;;;;11.37;10.20;;;9.60;99.90;;;;;;5040094;28;20187;-68
2023/12/11 11:03:44;;;;;;;11.03;9.87;;;9.60;99.90;;;;;;5040504;28;20203;-69
2023/12/11 11:06:12;;;;;;;12.37;10.60;;;9.50;99.90;;;;;;5040369;28;20200;-68
2023/12/11 11:08:52;;;;;;;12.63;10.57;;;9.50;99.90;;;;;;5012920;28;20211;-69
2023/12/11 11:11:31;;;;;;;17.20;10.70;;;9.40;99.90;;;;;;5004558;28;20318;-68
2023/12/11 11:14:20;;;;;;;11.03;10.27;;;9.50;99.90;;;;;;5010354;28;20270;-69
2023/12/11 11:16:52;;;;;;;11.00;10.20;;;9.60;99.90;;;;;;5024675;28;20514;-68
2023/12/11 11:19:20;;;;;;;11.53;10.53;;;9.70;99.90;;;;;;5017651;28;20399;-68
2023/12/11 11:22:10;;;;;;;11.30;10.60;;;9.70;99.90;;;;;;5019973;28;20208;-68
2023/12/11 11:24:37;;;;;;;11.17;10.50;;;9.80;99.90;;;;;;5004148;28;20824;-69
2023/12/11 11:27:42;;;;;;;11.30;10.50;;;9.80;99.90;;;;;;5024678;28;20259;-68
2023/12/11 11:30:10;;;;;;;13.10;11.77;;;9.90;99.90;;;;;;5021666;28;20934;-68
2023/12/11 11:32:54;;;;;;;11.80;11.10;;;10.00;99.90;;;;;;5011953;28;20189;-68
2023/12/11 11:35:43;;;;;;;12.20;11.30;;;10.00;99.90;;;;;;5029992;28;20568;-69
2023/12/11 11:38:14;;;;;;;11.70;10.90;;;10.00;99.90;;;;;;5027515;28;20196;-68
2023/12/11 11:40:43;;;;;;;12.90;11.53;;;10.00;99.90;;;;;;5028440;28;20200;-72
2023/12/11 11:43:12;;;;;;;12.33;11.20;;;10.00;99.90;;;;;;5028127;28;20200;-68
2023/12/11 11:45:39;;;;;;;11.70;10.80;;;10.00;99.90;;;;;;5009554;28;20669;-71
2023/12/11 11:48:06;;;;;;;12.40;11.40;;;10.00;99.90;;;;;;5024342;28;20663;-68
2023/12/11 11:50:35;;;;;;;12.70;11.53;;;10.00;99.90;;;;;;5030330;28;20243;-68
2023/12/11 11:53:10;;;;;;;12.40;11.30;;;10.10;99.90;;;;;;5019816;28;20213;-68
2023/12/11 11:55:38;;;;;;;11.57;10.80;;;10.30;99.90;;;;;;5024708;28;20799;-67
2023/12/11 11:58:15;;;;;;;12.80;11.57;;;10.50;99.90;;;;;;4998737;28;20385;-67
2023/12/11 12:00:43;;;;;;;12.53;11.40;;;10.80;99.90;;;;;;5010285;28;20722;-68
2023/12/11 12:03:11;;;;;;;12.13;11.30;;;11.00;99.90;;;;;;5028949;28;20188;-68
2023/12/11 12:05:55;;;;;;;12.70;11.60;;;11.20;99.90;;;;;;5027758;28;20200;-71
2023/12/11 12:08:23;;;;;;;12.93;11.60;;;11.30;99.90;;;;;;5029595;28;20188;-70
2023/12/11 12:10:54;;;;;;;13.10;11.97;;;11.30;99.90;;;;;;5011485;28;20313;-70
2023/12/11 12:13:22;;;;;;;13.90;12.70;;;11.10;99.90;;;;;;5010753;28;20228;-70
2023/12/11 12:15:51;;;;;;;12.90;12.03;;;11.10;99.90;;;;;;5029902;28;20192;-70
2023/12/11 12:18:18;;;;;;;13.57;12.63;;;11.00;99.90;;;;;;5028046;28;20242;-68
2023/12/11 12:21:06;;;;;;;12.90;12.00;;;10.90;99.90;;;;;;5028147;28;20200;-69
2023/12/11 12:23:33;;;;;;;12.90;11.90;;;10.70;99.90;;;;;;5018507;28;20693;-68
2023/12/11 12:26:02;;;;;;;12.90;12.00;;;10.60;99.90;;;;;;5011650;28;20579;-68
2023/12/11 12:28:30;;;;;;;13.10;12.10;;;10.50;99.90;;;;;;5027475;28;20208;-67
2023/12/11 12:30:57;;;;;;;13.00;12.10;;;10.50;99.90;;;;;;5028529;28;20684;-68
2023/12/11 12:33:25;;;;;;;13.70;12.70;;;10.50;99.90;;;;;;5028472;28;20230;-67
2023/12/11 12:35:52;;;;;;;12.80;11.90;;;10.50;99.90;;;;;;5028192;28;20196;-68
2023/12/11 12:38:21;;;;;;;13.07;12.10;;;10.60;99.90;;;;;;5022165;28;20208;-68
2023/12/11 12:40:48;;;;;;;13.33;12.27;;;10.80;99.90;;;;;;5028144;28;20172;-69
2023/12/11 12:43:16;;;;;;;12.70;11.80;;;10.80;99.90;;;;;;5023708;28;20216;-70